sensor_id;sensor_type;location;lat;lon;timestamp;P1;durP1;ratioP1;P2;durP2;ratioP2
50683;SDS011;36654;45.042;38.994;2023-08-20T00:01:40;14.10;;;4.60;;
50683;SDS011;36654;45.042;38.994;2023-08-20T00:04:06;11.02;;;5.32;;
50683;SDS011;36654;45.042;38.994;2023-08-20T00:06:33;20.92;;;5.25;;
50683;SDS011;36654;45.042;38.994;2023-08-20T00:08:59;12.07;;;4.30;;
50683;SDS011;36654;45.042;38.994;2023-08-20T00:11:25;9.63;;;4.82;;
50683;SDS011;36654;45.042;38.994;2023-08-20T00:13:50;10.82;;;4.80;;
50683;SDS011;36654;45.042;38.994;2023-08-20T00:16:16;11.32;;;4.93;;
50683;SDS011;36654;45.042;38.994;2023-08-20T00:18:42;9.35;;;4.97;;
50683;SDS011;36654;45.042;38.994;2023-08-20T00:21:08;11.50;;;4.60;;
50683;SDS011;36654;45.042;38.994;2023-08-20T00:23:34;11.15;;;5.07;;
50683;SDS011;36654;45.042;38.994;2023-08-20T00:26:01;14.13;;;4.80;;
50683;SDS011;36654;45.042;38.994;2023-08-20T00:28:27;13.18;;;4.40;;
50683;SDS011;36654;45.042;38.994;2023-08-20T00:30:53;9.73;;;4.50;;
50683;SDS011;36654;45.042;38.994;2023-08-20T00:33:19;13.65;;;4.78;;
50683;SDS011;36654;45.042;38.994;2023-08-20T00:35:44;10.80;;;5.10;;
50683;SDS011;36654;45.042;38.994;2023-08-20T00:38:10;10.68;;;5.00;;
50683;SDS011;36654;45.042;38.994;2023-08-20T00:40:35;8.25;;;4.75;;
50683;SDS011;36654;45.042;38.994;2023-08-20T00:43:01;13.15;;;5.15;;
50683;SDS011;36654;45.042;38.994;2023-08-20T00:45:27;12.13;;;4.72;;
50683;SDS011;36654;45.042;38.994;2023-08-20T00:47:53;9.80;;;4.57;;
50683;SDS011;36654;45.042;38.994;2023-08-20T00:50:18;9.63;;;4.82;;
50683;SDS011;36654;45.042;38.994;2023-08-20T00:52:45;13.63;;;5.80;;
50683;SDS011;36654;45.042;38.994;2023-08-20T00:55:11;12.65;;;5.30;;
50683;SDS011;36654;45.042;38.994;2023-08-20T00:57:40;13.00;;;5.38;;
50683;SDS011;36654;45.042;38.994;2023-08-20T01:00:07;12.10;;;5.35;;
50683;SDS011;36654;45.042;38.994;2023-08-20T01:02:35;15.55;;;5.25;;
50683;SDS011;36654;45.042;38.994;2023-08-20T01:05:02;22.60;;;5.75;;
50683;SDS011;36654;45.042;38.994;2023-08-20T01:07:38;10.70;;;4.93;;
50683;SDS011;36654;45.042;38.994;2023-08-20T01:10:17;12.93;;;5.40;;
50683;SDS011;36654;45.042;38.994;2023-08-20T01:12:47;11.20;;;5.38;;
50683;SDS011;36654;45.042;38.994;2023-08-20T01:15:15;13.60;;;4.90;;
50683;SDS011;36654;45.042;38.994;2023-08-20T01:17:41;13.23;;;5.13;;
50683;SDS011;36654;45.042;38.994;2023-08-20T01:20:08;10.93;;;5.22;;
50683;SDS011;36654;45.042;38.994;2023-08-20T01:28:28;11.27;;;5.20;;
50683;SDS011;36654;45.042;38.994;2023-08-20T01:30:58;9.32;;;5.13;;
50683;SDS011;36654;45.042;38.994;2023-08-20T01:33:26;12.02;;;5.35;;
50683;SDS011;36654;45.042;38.994;2023-08-20T01:35:52;9.90;;;5.10;;
50683;SDS011;36654;45.042;38.994;2023-08-20T01:38:19;14.20;;;5.65;;
50683;SDS011;36654;45.042;38.994;2023-08-20T01:40:45;14.52;;;5.07;;
50683;SDS011;36654;45.042;38.994;2023-08-20T01:43:11;12.75;;;4.93;;
50683;SDS011;36654;45.042;38.994;2023-08-20T01:45:37;8.35;;;5.55;;
50683;SDS011;36654;45.042;38.994;2023-08-20T01:48:03;9.52;;;4.95;;
50683;SDS011;36654;45.042;38.994;2023-08-20T01:50:29;11.70;;;4.63;;
50683;SDS011;36654;45.042;38.994;2023-08-20T01:52:56;9.10;;;4.50;;
50683;SDS011;36654;45.042;38.994;2023-08-20T01:55:21;11.95;;;4.80;;
50683;SDS011;36654;45.042;38.994;2023-08-20T01:57:47;12.23;;;5.25;;
50683;SDS011;36654;45.042;38.994;2023-08-20T02:00:13;8.77;;;4.55;;
50683;SDS011;36654;45.042;38.994;2023-08-20T02:02:38;13.43;;;5.13;;
50683;SDS011;36654;45.042;38.994;2023-08-20T02:05:04;9.43;;;4.85;;
50683;SDS011;36654;45.042;38.994;2023-08-20T02:07:30;13.90;;;5.50;;
50683;SDS011;36654;45.042;38.994;2023-08-20T02:09:56;13.07;;;5.40;;
50683;SDS011;36654;45.042;38.994;2023-08-20T02:12:21;8.40;;;4.22;;
50683;SDS011;36654;45.042;38.994;2023-08-20T02:14:47;11.10;;;5.32;;
50683;SDS011;36654;45.042;38.994;2023-08-20T02:17:13;7.68;;;4.97;;
50683;SDS011;36654;45.042;38.994;2023-08-20T02:19:39;8.75;;;4.63;;
50683;SDS011;36654;45.042;38.994;2023-08-20T02:22:05;10.60;;;4.57;;
50683;SDS011;36654;45.042;38.994;2023-08-20T02:24:30;11.52;;;5.72;;
50683;SDS011;36654;45.042;38.994;2023-08-20T02:26:56;9.85;;;4.53;;
50683;SDS011;36654;45.042;38.994;2023-08-20T02:29:24;12.55;;;5.35;;
50683;SDS011;36654;45.042;38.994;2023-08-20T02:31:50;14.75;;;5.20;;
50683;SDS011;36654;45.042;38.994;2023-08-20T02:34:16;10.93;;;5.07;;
50683;SDS011;36654;45.042;38.994;2023-08-20T02:36:41;14.10;;;5.10;;
50683;SDS011;36654;45.042;38.994;2023-08-20T02:39:07;12.73;;;5.68;;
50683;SDS011;36654;45.042;38.994;2023-08-20T02:41:33;15.88;;;5.30;;
50683;SDS011;36654;45.042;38.994;2023-08-20T02:46:26;15.65;;;5.28;;
50683;SDS011;36654;45.042;38.994;2023-08-20T02:48:52;14.25;;;5.00;;
50683;SDS011;36654;45.042;38.994;2023-08-20T02:51:17;9.43;;;4.90;;
50683;SDS011;36654;45.042;38.994;2023-08-20T02:53:43;14.40;;;5.90;;
50683;SDS011;36654;45.042;38.994;2023-08-20T02:56:09;17.75;;;5.28;;
50683;SDS011;36654;45.042;38.994;2023-08-20T02:58:34;13.25;;;5.30;;
50683;SDS011;36654;45.042;38.994;2023-08-20T03:01:00;18.17;;;6.13;;
50683;SDS011;36654;45.042;38.994;2023-08-20T03:03:25;18.85;;;5.65;;
50683;SDS011;36654;45.042;38.994;2023-08-20T03:05:51;14.18;;;5.32;;
50683;SDS011;36654;45.042;38.994;2023-08-20T03:08:17;10.52;;;5.43;;
50683;SDS011;36654;45.042;38.994;2023-08-20T03:10:42;7.07;;;4.68;;
50683;SDS011;36654;45.042;38.994;2023-08-20T03:13:08;10.07;;;5.20;;
50683;SDS011;36654;45.042;38.994;2023-08-20T03:15:33;10.35;;;5.00;;
50683;SDS011;36654;45.042;38.994;2023-08-20T03:17:59;12.05;;;5.40;;
50683;SDS011;36654;45.042;38.994;2023-08-20T03:20:25;14.07;;;5.18;;
50683;SDS011;36654;45.042;38.994;2023-08-20T03:22:51;14.90;;;4.75;;
50683;SDS011;36654;45.042;38.994;2023-08-20T03:25:17;13.15;;;5.47;;
50683;SDS011;36654;45.042;38.994;2023-08-20T03:27:43;12.55;;;5.25;;
50683;SDS011;36654;45.042;38.994;2023-08-20T03:30:09;11.60;;;5.22;;
50683;SDS011;36654;45.042;38.994;2023-08-20T03:32:35;13.48;;;5.07;;
50683;SDS011;36654;45.042;38.994;2023-08-20T03:35:01;10.50;;;5.40;;
50683;SDS011;36654;45.042;38.994;2023-08-20T03:37:26;10.60;;;5.15;;
50683;SDS011;36654;45.042;38.994;2023-08-20T03:39:52;10.82;;;4.88;;
50683;SDS011;36654;45.042;38.994;2023-08-20T03:42:18;14.07;;;5.25;;
50683;SDS011;36654;45.042;38.994;2023-08-20T03:44:43;11.77;;;5.60;;
50683;SDS011;36654;45.042;38.994;2023-08-20T03:47:09;12.80;;;5.72;;
50683;SDS011;36654;45.042;38.994;2023-08-20T03:49:35;16.25;;;4.97;;
50683;SDS011;36654;45.042;38.994;2023-08-20T03:52:00;16.77;;;5.00;;
50683;SDS011;36654;45.042;38.994;2023-08-20T03:54:27;9.05;;;5.22;;
50683;SDS011;36654;45.042;38.994;2023-08-20T03:56:54;11.32;;;5.40;;
50683;SDS011;36654;45.042;38.994;2023-08-20T03:59:20;16.02;;;5.20;;
50683;SDS011;36654;45.042;38.994;2023-08-20T04:01:46;10.65;;;4.95;;
50683;SDS011;36654;45.042;38.994;2023-08-20T04:04:11;15.68;;;5.55;;
50683;SDS011;36654;45.042;38.994;2023-08-20T04:06:37;16.17;;;5.82;;
50683;SDS011;36654;45.042;38.994;2023-08-20T04:09:02;14.82;;;5.28;;
50683;SDS011;36654;45.042;38.994;2023-08-20T04:11:28;16.23;;;6.28;;
50683;SDS011;36654;45.042;38.994;2023-08-20T04:13:55;21.52;;;7.05;;
50683;SDS011;36654;45.042;38.994;2023-08-20T04:16:21;22.75;;;6.28;;
50683;SDS011;36654;45.042;38.994;2023-08-20T04:18:46;18.83;;;6.82;;
50683;SDS011;36654;45.042;38.994;2023-08-20T04:21:13;11.63;;;5.47;;
50683;SDS011;36654;45.042;38.994;2023-08-20T04:23:38;15.63;;;5.63;;
50683;SDS011;36654;45.042;38.994;2023-08-20T04:26:04;12.13;;;5.35;;
50683;SDS011;36654;45.042;38.994;2023-08-20T04:28:30;11.32;;;5.50;;
50683;SDS011;36654;45.042;38.994;2023-08-20T04:30:55;16.73;;;5.90;;
50683;SDS011;36654;45.042;38.994;2023-08-20T04:33:21;18.13;;;5.82;;
50683;SDS011;36654;45.042;38.994;2023-08-20T04:35:50;19.02;;;6.03;;
50683;SDS011;36654;45.042;38.994;2023-08-20T04:38:16;18.45;;;6.50;;
50683;SDS011;36654;45.042;38.994;2023-08-20T04:40:41;11.07;;;5.60;;
50683;SDS011;36654;45.042;38.994;2023-08-20T04:43:07;12.90;;;5.82;;
50683;SDS011;36654;45.042;38.994;2023-08-20T04:45:32;18.23;;;5.85;;
50683;SDS011;36654;45.042;38.994;2023-08-20T04:47:59;16.33;;;5.65;;
50683;SDS011;36654;45.042;38.994;2023-08-20T04:50:25;18.23;;;6.07;;
50683;SDS011;36654;45.042;38.994;2023-08-20T04:52:50;16.52;;;5.85;;
50683;SDS011;36654;45.042;38.994;2023-08-20T04:55:16;13.65;;;5.53;;
50683;SDS011;36654;45.042;38.994;2023-08-20T04:57:42;10.25;;;5.45;;
50683;SDS011;36654;45.042;38.994;2023-08-20T05:00:07;11.93;;;5.65;;
50683;SDS011;36654;45.042;38.994;2023-08-20T05:02:35;15.93;;;5.63;;
50683;SDS011;36654;45.042;38.994;2023-08-20T05:05:01;13.00;;;5.82;;
50683;SDS011;36654;45.042;38.994;2023-08-20T05:07:28;16.85;;;5.57;;
50683;SDS011;36654;45.042;38.994;2023-08-20T05:09:53;19.10;;;5.43;;
50683;SDS011;36654;45.042;38.994;2023-08-20T05:12:19;13.25;;;5.63;;
50683;SDS011;36654;45.042;38.994;2023-08-20T05:14:45;11.20;;;4.85;;
50683;SDS011;36654;45.042;38.994;2023-08-20T05:17:10;12.30;;;5.18;;
50683;SDS011;36654;45.042;38.994;2023-08-20T05:19:36;17.77;;;5.45;;
50683;SDS011;36654;45.042;38.994;2023-08-20T05:22:01;12.98;;;5.28;;
50683;SDS011;36654;45.042;38.994;2023-08-20T05:24:27;14.10;;;5.35;;
50683;SDS011;36654;45.042;38.994;2023-08-20T05:27:09;12.73;;;5.68;;
50683;SDS011;36654;45.042;38.994;2023-08-20T05:29:42;12.40;;;5.32;;
50683;SDS011;36654;45.042;38.994;2023-08-20T05:32:08;13.38;;;5.25;;
50683;SDS011;36654;45.042;38.994;2023-08-20T05:34:34;11.45;;;5.10;;
50683;SDS011;36654;45.042;38.994;2023-08-20T05:37:00;17.40;;;5.15;;
50683;SDS011;36654;45.042;38.994;2023-08-20T05:39:26;13.05;;;5.20;;
50683;SDS011;36654;45.042;38.994;2023-08-20T05:41:54;10.63;;;4.43;;
50683;SDS011;36654;45.042;38.994;2023-08-20T05:44:20;11.93;;;4.95;;
50683;SDS011;36654;45.042;38.994;2023-08-20T05:46:46;11.75;;;5.18;;
50683;SDS011;36654;45.042;38.994;2023-08-20T05:49:13;14.95;;;4.70;;
50683;SDS011;36654;45.042;38.994;2023-08-20T05:51:41;16.17;;;4.75;;
50683;SDS011;36654;45.042;38.994;2023-08-20T05:54:09;12.32;;;4.90;;
50683;SDS011;36654;45.042;38.994;2023-08-20T05:56:35;13.68;;;4.78;;
50683;SDS011;36654;45.042;38.994;2023-08-20T05:59:01;14.75;;;4.75;;
50683;SDS011;36654;45.042;38.994;2023-08-20T06:01:26;10.85;;;4.82;;
50683;SDS011;36654;45.042;38.994;2023-08-20T06:03:52;11.88;;;5.22;;
50683;SDS011;36654;45.042;38.994;2023-08-20T06:06:18;10.95;;;4.45;;
50683;SDS011;36654;45.042;38.994;2023-08-20T06:08:43;12.30;;;5.07;;
50683;SDS011;36654;45.042;38.994;2023-08-20T06:11:09;12.05;;;5.05;;
50683;SDS011;36654;45.042;38.994;2023-08-20T06:13:34;14.75;;;4.45;;
50683;SDS011;36654;45.042;38.994;2023-08-20T06:16:00;18.30;;;4.63;;
50683;SDS011;36654;45.042;38.994;2023-08-20T06:18:26;11.00;;;4.00;;
50683;SDS011;36654;45.042;38.994;2023-08-20T06:20:52;12.10;;;4.57;;
50683;SDS011;36654;45.042;38.994;2023-08-20T06:23:18;11.30;;;4.60;;
50683;SDS011;36654;45.042;38.994;2023-08-20T06:25:44;15.10;;;4.90;;
50683;SDS011;36654;45.042;38.994;2023-08-20T06:28:10;11.85;;;4.10;;
50683;SDS011;36654;45.042;38.994;2023-08-20T06:30:37;14.15;;;3.92;;
50683;SDS011;36654;45.042;38.994;2023-08-20T06:33:03;10.00;;;3.95;;
50683;SDS011;36654;45.042;38.994;2023-08-20T06:35:28;8.30;;;3.72;;
50683;SDS011;36654;45.042;38.994;2023-08-20T06:37:54;9.25;;;3.65;;
50683;SDS011;36654;45.042;38.994;2023-08-20T06:40:20;8.15;;;4.03;;
50683;SDS011;36654;45.042;38.994;2023-08-20T06:42:45;15.07;;;4.82;;
50683;SDS011;36654;45.042;38.994;2023-08-20T06:45:11;10.50;;;4.47;;
50683;SDS011;36654;45.042;38.994;2023-08-20T06:47:36;10.27;;;4.35;;
50683;SDS011;36654;45.042;38.994;2023-08-20T06:50:02;14.27;;;4.53;;
50683;SDS011;36654;45.042;38.994;2023-08-20T06:52:29;11.43;;;4.60;;
50683;SDS011;36654;45.042;38.994;2023-08-20T06:54:55;13.70;;;4.65;;
50683;SDS011;36654;45.042;38.994;2023-08-20T06:57:20;8.23;;;4.68;;
50683;SDS011;36654;45.042;38.994;2023-08-20T06:59:46;13.32;;;4.50;;
50683;SDS011;36654;45.042;38.994;2023-08-20T07:02:11;11.88;;;4.45;;
50683;SDS011;36654;45.042;38.994;2023-08-20T07:04:37;11.15;;;4.72;;
50683;SDS011;36654;45.042;38.994;2023-08-20T07:07:03;11.80;;;4.55;;
50683;SDS011;36654;45.042;38.994;2023-08-20T07:09:31;8.45;;;3.67;;
50683;SDS011;36654;45.042;38.994;2023-08-20T07:11:57;11.52;;;4.40;;
50683;SDS011;36654;45.042;38.994;2023-08-20T07:14:23;8.77;;;4.20;;
50683;SDS011;36654;45.042;38.994;2023-08-20T07:16:48;14.80;;;4.25;;
50683;SDS011;36654;45.042;38.994;2023-08-20T07:19:14;8.75;;;4.10;;
50683;SDS011;36654;45.042;38.994;2023-08-20T07:21:39;13.40;;;4.45;;
50683;SDS011;36654;45.042;38.994;2023-08-20T07:24:05;12.73;;;4.60;;
50683;SDS011;36654;45.042;38.994;2023-08-20T07:26:31;15.35;;;4.55;;
50683;SDS011;36654;45.042;38.994;2023-08-20T07:28:57;7.93;;;4.25;;
50683;SDS011;36654;45.042;38.994;2023-08-20T07:31:32;11.35;;;4.05;;
50683;SDS011;36654;45.042;38.994;2023-08-20T07:33:59;9.02;;;3.92;;
50683;SDS011;36654;45.042;38.994;2023-08-20T07:36:28;6.82;;;3.83;;
50683;SDS011;36654;45.042;38.994;2023-08-20T07:38:54;14.70;;;4.07;;
50683;SDS011;36654;45.042;38.994;2023-08-20T07:41:20;7.60;;;4.05;;
50683;SDS011;36654;45.042;38.994;2023-08-20T07:43:47;10.43;;;4.18;;
50683;SDS011;36654;45.042;38.994;2023-08-20T07:46:13;10.77;;;4.22;;
50683;SDS011;36654;45.042;38.994;2023-08-20T07:48:39;8.38;;;4.07;;
50683;SDS011;36654;45.042;38.994;2023-08-20T07:51:05;6.22;;;3.10;;
50683;SDS011;36654;45.042;38.994;2023-08-20T07:53:31;9.82;;;3.45;;
50683;SDS011;36654;45.042;38.994;2023-08-20T07:55:58;10.20;;;3.47;;
50683;SDS011;36654;45.042;38.994;2023-08-20T07:58:25;12.32;;;3.78;;
50683;SDS011;36654;45.042;38.994;2023-08-20T08:00:50;10.13;;;4.38;;
50683;SDS011;36654;45.042;38.994;2023-08-20T08:03:16;9.20;;;3.40;;
50683;SDS011;36654;45.042;38.994;2023-08-20T08:05:48;11.80;;;4.20;;
50683;SDS011;36654;45.042;38.994;2023-08-20T08:08:15;14.82;;;3.40;;
50683;SDS011;36654;45.042;38.994;2023-08-20T08:10:42;9.35;;;3.28;;
50683;SDS011;36654;45.042;38.994;2023-08-20T08:13:10;7.20;;;3.88;;
50683;SDS011;36654;45.042;38.994;2023-08-20T08:15:39;9.27;;;4.95;;
50683;SDS011;36654;45.042;38.994;2023-08-20T08:18:05;13.45;;;4.80;;
50683;SDS011;36654;45.042;38.994;2023-08-20T08:20:32;11.45;;;4.35;;
50683;SDS011;36654;45.042;38.994;2023-08-20T08:22:58;14.57;;;4.47;;
50683;SDS011;36654;45.042;38.994;2023-08-20T08:25:23;12.05;;;3.47;;
50683;SDS011;36654;45.042;38.994;2023-08-20T08:27:49;10.15;;;4.45;;
50683;SDS011;36654;45.042;38.994;2023-08-20T08:30:14;8.57;;;3.55;;
50683;SDS011;36654;45.042;38.994;2023-08-20T08:32:40;10.30;;;3.30;;
50683;SDS011;36654;45.042;38.994;2023-08-20T08:35:06;5.82;;;3.47;;
50683;SDS011;36654;45.042;38.994;2023-08-20T08:37:32;9.13;;;3.67;;
50683;SDS011;36654;45.042;38.994;2023-08-20T08:39:58;6.90;;;3.08;;
50683;SDS011;36654;45.042;38.994;2023-08-20T08:42:24;5.45;;;3.42;;
50683;SDS011;36654;45.042;38.994;2023-08-20T08:44:50;3.88;;;2.83;;
50683;SDS011;36654;45.042;38.994;2023-08-20T08:47:16;9.50;;;3.45;;
50683;SDS011;36654;45.042;38.994;2023-08-20T08:49:46;7.57;;;3.08;;
50683;SDS011;36654;45.042;38.994;2023-08-20T08:52:13;16.05;;;3.47;;
50683;SDS011;36654;45.042;38.994;2023-08-20T08:54:40;17.35;;;3.70;;
50683;SDS011;36654;45.042;38.994;2023-08-20T08:57:06;9.82;;;3.85;;
50683;SDS011;36654;45.042;38.994;2023-08-20T08:59:33;7.35;;;3.38;;
50683;SDS011;36654;45.042;38.994;2023-08-20T09:01:58;4.45;;;2.92;;
50683;SDS011;36654;45.042;38.994;2023-08-20T09:04:24;17.73;;;4.43;;
50683;SDS011;36654;45.042;38.994;2023-08-20T09:06:51;7.25;;;3.45;;
50683;SDS011;36654;45.042;38.994;2023-08-20T09:09:18;7.35;;;3.03;;
50683;SDS011;36654;45.042;38.994;2023-08-20T09:11:46;10.48;;;3.65;;
50683;SDS011;36654;45.042;38.994;2023-08-20T09:14:22;14.05;;;3.95;;
50683;SDS011;36654;45.042;38.994;2023-08-20T09:16:55;9.00;;;3.45;;
50683;SDS011;36654;45.042;38.994;2023-08-20T09:19:22;7.03;;;3.15;;
50683;SDS011;36654;45.042;38.994;2023-08-20T09:21:48;8.95;;;3.58;;
50683;SDS011;36654;45.042;38.994;2023-08-20T09:24:14;3.95;;;2.85;;
50683;SDS011;36654;45.042;38.994;2023-08-20T09:26:44;6.65;;;3.67;;
50683;SDS011;36654;45.042;38.994;2023-08-20T09:29:11;9.93;;;3.63;;
50683;SDS011;36654;45.042;38.994;2023-08-20T09:31:37;6.22;;;3.47;;
50683;SDS011;36654;45.042;38.994;2023-08-20T09:34:04;7.05;;;3.25;;
50683;SDS011;36654;45.042;38.994;2023-08-20T09:36:30;8.60;;;3.78;;
50683;SDS011;36654;45.042;38.994;2023-08-20T09:38:57;9.65;;;3.72;;
50683;SDS011;36654;45.042;38.994;2023-08-20T09:41:23;12.63;;;3.20;;
50683;SDS011;36654;45.042;38.994;2023-08-20T09:43:51;9.85;;;3.40;;
50683;SDS011;36654;45.042;38.994;2023-08-20T09:46:21;10.43;;;4.10;;
50683;SDS011;36654;45.042;38.994;2023-08-20T09:48:49;15.18;;;4.57;;
50683;SDS011;36654;45.042;38.994;2023-08-20T09:51:18;8.63;;;3.45;;
50683;SDS011;36654;45.042;38.994;2023-08-20T09:54:00;7.90;;;3.40;;
50683;SDS011;36654;45.042;38.994;2023-08-20T09:56:38;10.52;;;3.75;;
50683;SDS011;36654;45.042;38.994;2023-08-20T09:59:04;6.70;;;2.95;;
50683;SDS011;36654;45.042;38.994;2023-08-20T10:01:32;12.88;;;3.60;;
50683;SDS011;36654;45.042;38.994;2023-08-20T10:03:58;9.98;;;3.72;;
50683;SDS011;36654;45.042;38.994;2023-08-20T10:06:24;11.80;;;4.07;;
50683;SDS011;36654;45.042;38.994;2023-08-20T10:08:51;8.50;;;4.35;;
50683;SDS011;36654;45.042;38.994;2023-08-20T10:11:19;10.40;;;4.28;;
50683;SDS011;36654;45.042;38.994;2023-08-20T10:13:44;9.95;;;4.25;;
50683;SDS011;36654;45.042;38.994;2023-08-20T10:16:13;6.80;;;3.30;;
50683;SDS011;36654;45.042;38.994;2023-08-20T10:18:44;13.23;;;3.88;;
50683;SDS011;36654;45.042;38.994;2023-08-20T10:21:11;8.10;;;3.78;;
50683;SDS011;36654;45.042;38.994;2023-08-20T10:23:40;10.75;;;3.58;;
50683;SDS011;36654;45.042;38.994;2023-08-20T10:26:07;8.02;;;3.40;;
50683;SDS011;36654;45.042;38.994;2023-08-20T10:28:34;10.57;;;4.07;;
50683;SDS011;36654;45.042;38.994;2023-08-20T10:36:18;6.50;;;4.22;;
50683;SDS011;36654;45.042;38.994;2023-08-20T10:38:53;7.93;;;5.15;;
50683;SDS011;36654;45.042;38.994;2023-08-20T10:41:27;8.57;;;5.00;;
50683;SDS011;36654;45.042;38.994;2023-08-20T10:43:57;10.57;;;5.18;;
50683;SDS011;36654;45.042;38.994;2023-08-20T10:46:24;13.43;;;5.55;;
50683;SDS011;36654;45.042;38.994;2023-08-20T10:48:55;9.48;;;5.25;;
50683;SDS011;36654;45.042;38.994;2023-08-20T10:51:29;13.65;;;6.60;;
50683;SDS011;36654;45.042;38.994;2023-08-20T10:54:02;11.52;;;5.95;;
50683;SDS011;36654;45.042;38.994;2023-08-20T10:56:45;10.07;;;6.05;;
50683;SDS011;36654;45.042;38.994;2023-08-20T10:59:21;10.27;;;5.95;;
50683;SDS011;36654;45.042;38.994;2023-08-20T11:01:57;13.13;;;6.45;;
50683;SDS011;36654;45.042;38.994;2023-08-20T11:04:25;10.55;;;6.47;;
50683;SDS011;36654;45.042;38.994;2023-08-20T11:06:57;10.63;;;5.60;;
50683;SDS011;36654;45.042;38.994;2023-08-20T11:09:27;16.42;;;5.50;;
50683;SDS011;36654;45.042;38.994;2023-08-20T11:11:54;10.10;;;5.70;;
50683;SDS011;36654;45.042;38.994;2023-08-20T11:14:21;15.57;;;5.32;;
50683;SDS011;36654;45.042;38.994;2023-08-20T11:16:47;10.70;;;4.82;;
50683;SDS011;36654;45.042;38.994;2023-08-20T11:19:14;10.60;;;4.68;;
50683;SDS011;36654;45.042;38.994;2023-08-20T11:21:43;9.20;;;4.80;;
50683;SDS011;36654;45.042;38.994;2023-08-20T11:24:09;11.00;;;5.13;;
50683;SDS011;36654;45.042;38.994;2023-08-20T11:26:39;11.73;;;5.63;;
50683;SDS011;36654;45.042;38.994;2023-08-20T11:29:05;6.70;;;4.50;;
50683;SDS011;36654;45.042;38.994;2023-08-20T11:31:32;9.90;;;5.22;;
50683;SDS011;36654;45.042;38.994;2023-08-20T11:33:58;7.22;;;4.25;;
50683;SDS011;36654;45.042;38.994;2023-08-20T11:36:24;9.52;;;4.68;;
50683;SDS011;36654;45.042;38.994;2023-08-20T11:38:50;14.52;;;3.97;;
50683;SDS011;36654;45.042;38.994;2023-08-20T11:41:23;5.60;;;3.95;;
50683;SDS011;36654;45.042;38.994;2023-08-20T11:43:50;8.70;;;3.90;;
50683;SDS011;36654;45.042;38.994;2023-08-20T11:46:18;8.27;;;4.10;;
50683;SDS011;36654;45.042;38.994;2023-08-20T11:49:02;6.30;;;3.75;;
50683;SDS011;36654;45.042;38.994;2023-08-20T11:51:29;12.43;;;3.70;;
50683;SDS011;36654;45.042;38.994;2023-08-20T11:53:57;9.65;;;3.63;;
50683;SDS011;36654;45.042;38.994;2023-08-20T11:56:23;8.27;;;3.47;;
50683;SDS011;36654;45.042;38.994;2023-08-20T11:58:51;13.07;;;3.58;;
50683;SDS011;36654;45.042;38.994;2023-08-20T12:01:20;5.95;;;2.90;;
50683;SDS011;36654;45.042;38.994;2023-08-20T12:03:46;6.20;;;3.20;;
50683;SDS011;36654;45.042;38.994;2023-08-20T12:06:21;6.68;;;2.70;;
50683;SDS011;36654;45.042;38.994;2023-08-20T12:08:53;6.93;;;3.22;;
50683;SDS011;36654;45.042;38.994;2023-08-20T12:11:22;7.53;;;3.33;;
50683;SDS011;36654;45.042;38.994;2023-08-20T12:13:50;8.48;;;3.67;;
50683;SDS011;36654;45.042;38.994;2023-08-20T12:16:15;4.50;;;2.70;;
50683;SDS011;36654;45.042;38.994;2023-08-20T12:18:41;5.90;;;2.63;;
50683;SDS011;36654;45.042;38.994;2023-08-20T12:21:07;8.48;;;3.10;;
50683;SDS011;36654;45.042;38.994;2023-08-20T12:23:32;7.82;;;2.65;;
50683;SDS011;36654;45.042;38.994;2023-08-20T12:25:58;4.57;;;2.72;;
50683;SDS011;36654;45.042;38.994;2023-08-20T12:28:23;7.93;;;2.97;;
50683;SDS011;36654;45.042;38.994;2023-08-20T12:30:51;6.65;;;3.10;;
50683;SDS011;36654;45.042;38.994;2023-08-20T12:33:17;5.82;;;2.63;;
50683;SDS011;36654;45.042;38.994;2023-08-20T12:35:42;9.57;;;2.45;;
50683;SDS011;36654;45.042;38.994;2023-08-20T12:38:08;6.45;;;2.75;;
50683;SDS011;36654;45.042;38.994;2023-08-20T12:40:34;8.00;;;2.90;;
50683;SDS011;36654;45.042;38.994;2023-08-20T12:42:59;9.35;;;2.90;;
50683;SDS011;36654;45.042;38.994;2023-08-20T12:45:25;5.95;;;2.53;;
50683;SDS011;36654;45.042;38.994;2023-08-20T12:47:51;6.72;;;2.60;;
50683;SDS011;36654;45.042;38.994;2023-08-20T12:50:16;5.07;;;2.80;;
50683;SDS011;36654;45.042;38.994;2023-08-20T12:52:42;10.43;;;2.92;;
50683;SDS011;36654;45.042;38.994;2023-08-20T12:55:08;5.68;;;2.42;;
50683;SDS011;36654;45.042;38.994;2023-08-20T12:57:34;8.95;;;2.58;;
50683;SDS011;36654;45.042;38.994;2023-08-20T13:00:01;8.40;;;2.30;;
50683;SDS011;36654;45.042;38.994;2023-08-20T13:02:35;8.18;;;2.40;;
50683;SDS011;36654;45.042;38.994;2023-08-20T13:05:01;8.50;;;2.92;;
50683;SDS011;36654;45.042;38.994;2023-08-20T13:07:28;13.85;;;2.80;;
50683;SDS011;36654;45.042;38.994;2023-08-20T13:09:53;8.75;;;2.95;;
50683;SDS011;36654;45.042;38.994;2023-08-20T13:12:19;5.43;;;2.50;;
50683;SDS011;36654;45.042;38.994;2023-08-20T13:14:49;6.30;;;2.67;;
50683;SDS011;36654;45.042;38.994;2023-08-20T13:17:15;9.95;;;2.60;;
50683;SDS011;36654;45.042;38.994;2023-08-20T13:19:41;6.90;;;2.42;;
50683;SDS011;36654;45.042;38.994;2023-08-20T13:22:06;6.85;;;2.80;;
50683;SDS011;36654;45.042;38.994;2023-08-20T13:24:32;5.93;;;3.08;;
50683;SDS011;36654;45.042;38.994;2023-08-20T13:26:58;7.55;;;3.42;;
50683;SDS011;36654;45.042;38.994;2023-08-20T13:29:23;6.60;;;2.60;;
50683;SDS011;36654;45.042;38.994;2023-08-20T13:31:49;4.18;;;3.33;;
50683;SDS011;36654;45.042;38.994;2023-08-20T13:34:14;6.05;;;2.70;;
50683;SDS011;36654;45.042;38.994;2023-08-20T13:36:40;9.85;;;3.20;;
50683;SDS011;36654;45.042;38.994;2023-08-20T13:39:06;6.63;;;3.47;;
50683;SDS011;36654;45.042;38.994;2023-08-20T13:41:31;10.07;;;3.15;;
50683;SDS011;36654;45.042;38.994;2023-08-20T13:43:57;6.05;;;3.13;;
50683;SDS011;36654;45.042;38.994;2023-08-20T13:46:23;5.63;;;3.10;;
50683;SDS011;36654;45.042;38.994;2023-08-20T13:48:48;9.48;;;2.90;;
50683;SDS011;36654;45.042;38.994;2023-08-20T13:51:14;8.05;;;3.28;;
50683;SDS011;36654;45.042;38.994;2023-08-20T13:53:39;8.10;;;3.40;;
50683;SDS011;36654;45.042;38.994;2023-08-20T13:56:05;6.93;;;3.30;;
50683;SDS011;36654;45.042;38.994;2023-08-20T13:58:31;5.80;;;2.95;;
50683;SDS011;36654;45.042;38.994;2023-08-20T14:00:56;7.68;;;2.78;;
50683;SDS011;36654;45.042;38.994;2023-08-20T14:03:22;9.38;;;2.95;;
50683;SDS011;36654;45.042;38.994;2023-08-20T14:05:48;3.83;;;2.72;;
50683;SDS011;36654;45.042;38.994;2023-08-20T14:08:14;17.00;;;3.85;;
50683;SDS011;36654;45.042;38.994;2023-08-20T14:10:40;6.25;;;3.60;;
50683;SDS011;36654;45.042;38.994;2023-08-20T14:13:05;9.18;;;3.70;;
50683;SDS011;36654;45.042;38.994;2023-08-20T14:15:31;7.72;;;3.55;;
50683;SDS011;36654;45.042;38.994;2023-08-20T14:17:56;7.40;;;4.30;;
50683;SDS011;36654;45.042;38.994;2023-08-20T14:20:22;10.05;;;3.80;;
50683;SDS011;36654;45.042;38.994;2023-08-20T14:22:48;6.53;;;3.75;;
50683;SDS011;36654;45.042;38.994;2023-08-20T14:25:14;10.88;;;4.43;;
50683;SDS011;36654;45.042;38.994;2023-08-20T14:27:39;7.75;;;4.55;;
50683;SDS011;36654;45.042;38.994;2023-08-20T14:30:05;10.52;;;4.93;;
50683;SDS011;36654;45.042;38.994;2023-08-20T14:32:33;8.70;;;4.68;;
50683;SDS011;36654;45.042;38.994;2023-08-20T14:34:58;7.63;;;4.70;;
50683;SDS011;36654;45.042;38.994;2023-08-20T14:37:24;13.82;;;4.88;;